sensor_id;sensor_type;location;lat;lon;timestamp;temperature;humidity
71672;DHT22;62112;45.638;11.714;2022-07-23T00:00:19;31.20;40.20
71672;DHT22;62112;45.638;11.714;2022-07-23T00:02:45;31.20;40.40
71672;DHT22;62112;45.638;11.714;2022-07-23T00:05:11;31.10;40.90
71672;DHT22;62112;45.638;11.714;2022-07-23T00:07:37;31.00;40.60
71672;DHT22;62112;45.638;11.714;2022-07-23T00:10:04;31.00;41.10
71672;DHT22;62112;45.638;11.714;2022-07-23T00:12:30;31.00;40.80
71672;DHT22;62112;45.638;11.714;2022-07-23T00:14:56;30.90;41.20
71672;DHT22;62112;45.638;11.714;2022-07-23T00:17:21;31.00;41.20
71672;DHT22;62112;45.638;11.714;2022-07-23T00:19:47;30.90;41.40
71672;DHT22;62112;45.638;11.714;2022-07-23T00:22:13;31.00;41.50
71672;DHT22;62112;45.638;11.714;2022-07-23T00:24:39;30.90;41.30
71672;DHT22;62112;45.638;11.714;2022-07-23T00:27:05;31.00;41.40
71672;DHT22;62112;45.638;11.714;2022-07-23T00:29:31;30.90;41.80
71672;DHT22;62112;45.638;11.714;2022-07-23T00:31:57;30.80;41.40
71672;DHT22;62112;45.638;11.714;2022-07-23T00:34:23;30.80;41.90
71672;DHT22;62112;45.638;11.714;2022-07-23T00:36:49;30.80;41.90
71672;DHT22;62112;45.638;11.714;2022-07-23T00:39:15;30.80;41.80
71672;DHT22;62112;45.638;11.714;2022-07-23T00:41:40;30.70;41.90
71672;DHT22;62112;45.638;11.714;2022-07-23T00:44:20;30.60;41.80
71672;DHT22;62112;45.638;11.714;2022-07-23T00:46:54;30.70;42.00
71672;DHT22;62112;45.638;11.714;2022-07-23T00:49:24;30.60;42.10
71672;DHT22;62112;45.638;11.714;2022-07-23T00:51:51;30.60;42.30
71672;DHT22;62112;45.638;11.714;2022-07-23T00:54:18;30.60;42.10
71672;DHT22;62112;45.638;11.714;2022-07-23T00:56:46;30.50;42.40
71672;DHT22;62112;45.638;11.714;2022-07-23T00:59:12;30.50;42.60
71672;DHT22;62112;45.638;11.714;2022-07-23T01:01:39;30.60;42.50
71672;DHT22;62112;45.638;11.714;2022-07-23T01:04:05;30.50;42.90
71672;DHT22;62112;45.638;11.714;2022-07-23T01:06:35;30.50;43.00
71672;DHT22;62112;45.638;11.714;2022-07-23T01:09:06;30.50;42.90
71672;DHT22;62112;45.638;11.714;2022-07-23T01:11:36;30.40;42.50
71672;DHT22;62112;45.638;11.714;2022-07-23T01:14:18;30.50;43.30
71672;DHT22;62112;45.638;11.714;2022-07-23T01:16:46;30.50;43.40
71672;DHT22;62112;45.638;11.714;2022-07-23T01:19:13;30.40;43.40
71672;DHT22;62112;45.638;11.714;2022-07-23T01:21:41;30.40;43.30
71672;DHT22;62112;45.638;11.714;2022-07-23T01:24:08;30.40;43.50
71672;DHT22;62112;45.638;11.714;2022-07-23T01:26:34;30.40;43.60
71672;DHT22;62112;45.638;11.714;2022-07-23T01:29:00;30.40;43.60
71672;DHT22;62112;45.638;11.714;2022-07-23T01:31:26;30.40;43.60
71672;DHT22;62112;45.638;11.714;2022-07-23T01:33:52;30.40;43.50
71672;DHT22;62112;45.638;11.714;2022-07-23T01:36:19;30.40;43.50
71672;DHT22;62112;45.638;11.714;2022-07-23T01:38:45;30.30;43.70
71672;DHT22;62112;45.638;11.714;2022-07-23T01:41:11;30.40;43.90
71672;DHT22;62112;45.638;11.714;2022-07-23T01:43:36;30.40;44.00
71672;DHT22;62112;45.638;11.714;2022-07-23T01:46:02;30.30;43.70
71672;DHT22;62112;45.638;11.714;2022-07-23T01:48:28;30.30;43.80
71672;DHT22;62112;45.638;11.714;2022-07-23T01:50:54;30.40;43.40
71672;DHT22;62112;45.638;11.714;2022-07-23T01:53:20;30.30;43.50
71672;DHT22;62112;45.638;11.714;2022-07-23T01:55:46;30.40;43.60
71672;DHT22;62112;45.638;11.714;2022-07-23T01:58:12;30.30;43.50
71672;DHT22;62112;45.638;11.714;2022-07-23T02:00:38;30.20;43.50
71672;DHT22;62112;45.638;11.714;2022-07-23T02:03:03;30.30;43.70
71672;DHT22;62112;45.638;11.714;2022-07-23T02:05:30;30.30;43.50
71672;DHT22;62112;45.638;11.714;2022-07-23T02:07:58;30.20;43.30
71672;DHT22;62112;45.638;11.714;2022-07-23T02:10:25;30.20;43.80
71672;DHT22;62112;45.638;11.714;2022-07-23T02:12:51;30.30;43.30
71672;DHT22;62112;45.638;11.714;2022-07-23T02:15:17;30.20;43.30
71672;DHT22;62112;45.638;11.714;2022-07-23T02:17:43;30.20;43.30
71672;DHT22;62112;45.638;11.714;2022-07-23T02:20:10;30.20;43.20
71672;DHT22;62112;45.638;11.714;2022-07-23T02:22:36;30.20;43.40
71672;DHT22;62112;45.638;11.714;2022-07-23T02:25:04;30.20;43.20
71672;DHT22;62112;45.638;11.714;2022-07-23T02:27:30;30.20;43.10
71672;DHT22;62112;45.638;11.714;2022-07-23T02:29:56;30.20;43.00
71672;DHT22;62112;45.638;11.714;2022-07-23T02:32:23;30.20;43.10
71672;DHT22;62112;45.638;11.714;2022-07-23T02:34:49;30.20;43.10
71672;DHT22;62112;45.638;11.714;2022-07-23T02:37:16;30.20;43.20
71672;DHT22;62112;45.638;11.714;2022-07-23T02:39:42;30.20;42.90
71672;DHT22;62112;45.638;11.714;2022-07-23T02:42:08;30.10;43.00
71672;DHT22;62112;45.638;11.714;2022-07-23T02:44:34;30.10;43.20
71672;DHT22;62112;45.638;11.714;2022-07-23T02:47:00;30.20;43.30
71672;DHT22;62112;45.638;11.714;2022-07-23T02:49:26;30.10;43.40
71672;DHT22;62112;45.638;11.714;2022-07-23T02:51:52;30.10;43.40
71672;DHT22;62112;45.638;11.714;2022-07-23T02:54:18;30.10;43.50
71672;DHT22;62112;45.638;11.714;2022-07-23T02:56:44;30.20;43.50
71672;DHT22;62112;45.638;11.714;2022-07-23T02:59:10;30.10;43.50
71672;DHT22;62112;45.638;11.714;2022-07-23T03:01:36;30.10;43.80
71672;DHT22;62112;45.638;11.714;2022-07-23T03:04:02;30.20;44.00
71672;DHT22;62112;45.638;11.714;2022-07-23T03:06:28;30.00;44.40
71672;DHT22;62112;45.638;11.714;2022-07-23T03:08:54;30.10;44.40
71672;DHT22;62112;45.638;11.714;2022-07-23T03:11:20;30.20;44.50
71672;DHT22;62112;45.638;11.714;2022-07-23T03:13:46;30.20;44.20
71672;DHT22;62112;45.638;11.714;2022-07-23T03:16:11;30.10;44.50
71672;DHT22;62112;45.638;11.714;2022-07-23T03:18:37;30.00;44.30
71672;DHT22;62112;45.638;11.714;2022-07-23T03:21:03;30.10;44.60
71672;DHT22;62112;45.638;11.714;2022-07-23T03:23:29;30.20;44.60
71672;DHT22;62112;45.638;11.714;2022-07-23T03:25:55;30.10;44.60
71672;DHT22;62112;45.638;11.714;2022-07-23T03:28:21;30.00;44.80
71672;DHT22;62112;45.638;11.714;2022-07-23T03:30:47;30.10;44.60
71672;DHT22;62112;45.638;11.714;2022-07-23T03:33:18;30.00;45.00
71672;DHT22;62112;45.638;11.714;2022-07-23T03:35:45;30.00;44.80
71672;DHT22;62112;45.638;11.714;2022-07-23T03:38:11;30.00;44.70
71672;DHT22;62112;45.638;11.714;2022-07-23T03:40:38;30.00;44.70
71672;DHT22;62112;45.638;11.714;2022-07-23T03:43:04;30.10;44.50
71672;DHT22;62112;45.638;11.714;2022-07-23T03:45:30;30.00;44.80
71672;DHT22;62112;45.638;11.714;2022-07-23T03:47:56;30.00;44.40
71672;DHT22;62112;45.638;11.714;2022-07-23T03:50:22;30.00;44.70
71672;DHT22;62112;45.638;11.714;2022-07-23T03:52:48;30.00;45.00
71672;DHT22;62112;45.638;11.714;2022-07-23T03:55:14;30.00;44.80
71672;DHT22;62112;45.638;11.714;2022-07-23T03:57:40;30.00;45.00
71672;DHT22;62112;45.638;11.714;2022-07-23T04:00:08;30.00;45.00
71672;DHT22;62112;45.638;11.714;2022-07-23T04:02:36;30.10;44.80
71672;DHT22;62112;45.638;11.714;2022-07-23T04:05:06;30.10;45.00
71672;DHT22;62112;45.638;11.714;2022-07-23T04:07:34;30.00;44.90
71672;DHT22;62112;45.638;11.714;2022-07-23T04:10:01;30.00;45.10
71672;DHT22;62112;45.638;11.714;2022-07-23T04:12:27;30.00;45.10
71672;DHT22;62112;45.638;11.714;2022-07-23T04:14:54;30.00;45.20
71672;DHT22;62112;45.638;11.714;2022-07-23T04:17:20;30.00;45.30
71672;DHT22;62112;45.638;11.714;2022-07-23T04:19:46;30.00;45.30
71672;DHT22;62112;45.638;11.714;2022-07-23T04:22:13;30.00;45.20
71672;DHT22;62112;45.638;11.714;2022-07-23T04:24:40;30.00;45.30
71672;DHT22;62112;45.638;11.714;2022-07-23T04:27:09;30.00;45.50
71672;DHT22;62112;45.638;11.714;2022-07-23T04:29:37;30.00;45.60
71672;DHT22;62112;45.638;11.714;2022-07-23T04:32:08;30.00;45.70
71672;DHT22;62112;45.638;11.714;2022-07-23T04:34:34;30.00;45.70
71672;DHT22;62112;45.638;11.714;2022-07-23T04:37:02;30.00;45.40
71672;DHT22;62112;45.638;11.714;2022-07-23T04:39:30;30.00;45.50
71672;DHT22;62112;45.638;11.714;2022-07-23T04:41:56;30.00;45.70
71672;DHT22;62112;45.638;11.714;2022-07-23T04:44:22;30.00;45.30
71672;DHT22;62112;45.638;11.714;2022-07-23T04:46:49;30.00;45.40
71672;DHT22;62112;45.638;11.714;2022-07-23T04:49:17;30.00;45.30
71672;DHT22;62112;45.638;11.714;2022-07-23T04:51:46;30.00;45.20
71672;DHT22;62112;45.638;11.714;2022-07-23T04:54:12;30.00;45.10
71672;DHT22;62112;45.638;11.714;2022-07-23T04:56:38;30.00;45.40
71672;DHT22;62112;45.638;11.714;2022-07-23T04:59:04;30.00;45.10
71672;DHT22;62112;45.638;11.714;2022-07-23T05:01:30;30.00;45.50
71672;DHT22;62112;45.638;11.714;2022-07-23T05:03:56;30.00;45.80
71672;DHT22;62112;45.638;11.714;2022-07-23T05:06:22;30.00;45.40
71672;DHT22;62112;45.638;11.714;2022-07-23T05:08:47;30.10;45.40
71672;DHT22;62112;45.638;11.714;2022-07-23T05:11:13;30.10;45.40
71672;DHT22;62112;45.638;11.714;2022-07-23T05:13:39;30.10;45.30
71672;DHT22;62112;45.638;11.714;2022-07-23T05:16:05;30.10;45.60
71672;DHT22;62112;45.638;11.714;2022-07-23T05:18:31;30.10;45.50
71672;DHT22;62112;45.638;11.714;2022-07-23T05:20:58;30.10;45.20
71672;DHT22;62112;45.638;11.714;2022-07-23T05:23:25;30.00;44.80
71672;DHT22;62112;45.638;11.714;2022-07-23T05:25:54;30.10;44.80
71672;DHT22;62112;45.638;11.714;2022-07-23T05:28:23;30.10;45.30
71672;DHT22;62112;45.638;11.714;2022-07-23T05:30:51;30.00;45.40
71672;DHT22;62112;45.638;11.714;2022-07-23T05:33:20;30.10;45.40
71672;DHT22;62112;45.638;11.714;2022-07-23T05:35:47;30.10;45.30
71672;DHT22;62112;45.638;11.714;2022-07-23T05:38:13;30.10;45.20
71672;DHT22;62112;45.638;11.714;2022-07-23T05:40:39;30.10;45.40
71672;DHT22;62112;45.638;11.714;2022-07-23T05:43:04;30.10;45.10
71672;DHT22;62112;45.638;11.714;2022-07-23T05:45:30;30.20;45.80
71672;DHT22;62112;45.638;11.714;2022-07-23T05:47:56;30.10;45.70
71672;DHT22;62112;45.638;11.714;2022-07-23T05:50:22;30.20;45.80
71672;DHT22;62112;45.638;11.714;2022-07-23T05:52:48;30.10;45.90
71672;DHT22;62112;45.638;11.714;2022-07-23T05:55:14;30.20;46.20
71672;DHT22;62112;45.638;11.714;2022-07-23T05:57:41;30.20;46.20
71672;DHT22;62112;45.638;11.714;2022-07-23T06:00:08;30.20;46.40
71672;DHT22;62112;45.638;11.714;2022-07-23T06:02:34;30.30;46.30
71672;DHT22;62112;45.638;11.714;2022-07-23T06:05:00;30.20;46.20
71672;DHT22;62112;45.638;11.714;2022-07-23T06:07:26;30.20;46.20
71672;DHT22;62112;45.638;11.714;2022-07-23T06:09:52;30.20;45.90
71672;DHT22;62112;45.638;11.714;2022-07-23T06:12:18;30.30;45.80
71672;DHT22;62112;45.638;11.714;2022-07-23T06:14:46;30.20;46.00
71672;DHT22;62112;45.638;11.714;2022-07-23T06:17:14;30.30;46.70
71672;DHT22;62112;45.638;11.714;2022-07-23T06:19:39;30.40;46.40
71672;DHT22;62112;45.638;11.714;2022-07-23T06:22:05;30.30;46.20
71672;DHT22;62112;45.638;11.714;2022-07-23T06:24:31;30.40;46.40
71672;DHT22;62112;45.638;11.714;2022-07-23T06:26:57;30.30;46.00
71672;DHT22;62112;45.638;11.714;2022-07-23T06:29:23;30.40;45.90
71672;DHT22;62112;45.638;11.714;2022-07-23T06:31:49;30.40;46.00
71672;DHT22;62112;45.638;11.714;2022-07-23T06:34:14;30.50;45.80
71672;DHT22;62112;45.638;11.714;2022-07-23T06:36:40;30.50;46.00
71672;DHT22;62112;45.638;11.714;2022-07-23T06:39:06;30.40;45.80
71672;DHT22;62112;45.638;11.714;2022-07-23T06:41:32;30.50;45.00
71672;DHT22;62112;45.638;11.714;2022-07-23T06:43:58;30.40;44.10
71672;DHT22;62112;45.638;11.714;2022-07-23T06:46:24;30.40;43.50
71672;DHT22;62112;45.638;11.714;2022-07-23T06:48:50;30.40;43.20
71672;DHT22;62112;45.638;11.714;2022-07-23T06:51:16;30.40;43.20
71672;DHT22;62112;45.638;11.714;2022-07-23T06:53:42;30.40;43.00
71672;DHT22;62112;45.638;11.714;2022-07-23T06:56:08;30.40;42.90
71672;DHT22;62112;45.638;11.714;2022-07-23T06:58:34;30.40;42.60
71672;DHT22;62112;45.638;11.714;2022-07-23T07:01:00;30.40;42.30
71672;DHT22;62112;45.638;11.714;2022-07-23T07:03:25;30.40;42.10
71672;DHT22;62112;45.638;11.714;2022-07-23T07:05:51;30.40;42.20
71672;DHT22;62112;45.638;11.714;2022-07-23T07:08:18;30.40;42.30
71672;DHT22;62112;45.638;11.714;2022-07-23T07:10:44;30.40;42.40
71672;DHT22;62112;45.638;11.714;2022-07-23T07:13:12;30.40;42.00
71672;DHT22;62112;45.638;11.714;2022-07-23T07:15:38;30.40;41.80
71672;DHT22;62112;45.638;11.714;2022-07-23T07:18:04;30.40;41.80
71672;DHT22;62112;45.638;11.714;2022-07-23T07:20:29;30.40;41.80
71672;DHT22;62112;45.638;11.714;2022-07-23T07:22:55;30.40;42.10
71672;DHT22;62112;45.638;11.714;2022-07-23T07:25:21;30.60;41.40
71672;DHT22;62112;45.638;11.714;2022-07-23T07:27:47;30.50;41.90
71672;DHT22;62112;45.638;11.714;2022-07-23T07:30:13;30.60;41.60
71672;DHT22;62112;45.638;11.714;2022-07-23T07:32:39;30.50;41.20
71672;DHT22;62112;45.638;11.714;2022-07-23T07:35:06;30.50;41.30
71672;DHT22;62112;45.638;11.714;2022-07-23T07:37:32;30.50;41.30
71672;DHT22;62112;45.638;11.714;2022-07-23T07:39:58;30.50;41.20
71672;DHT22;62112;45.638;11.714;2022-07-23T07:42:24;30.60;41.20
71672;DHT22;62112;45.638;11.714;2022-07-23T07:44:50;30.60;41.00
71672;DHT22;62112;45.638;11.714;2022-07-23T07:47:16;30.50;40.70
71672;DHT22;62112;45.638;11.714;2022-07-23T07:49:42;30.50;40.70
71672;DHT22;62112;45.638;11.714;2022-07-23T07:52:09;30.50;40.50
71672;DHT22;62112;45.638;11.714;2022-07-23T07:54:36;30.60;40.40
71672;DHT22;62112;45.638;11.714;2022-07-23T07:57:01;30.60;40.30
71672;DHT22;62112;45.638;11.714;2022-07-23T07:59:27;30.60;40.00
71672;DHT22;62112;45.638;11.714;2022-07-23T08:01:53;30.50;39.60
71672;DHT22;62112;45.638;11.714;2022-07-23T08:04:24;30.60;39.60
71672;DHT22;62112;45.638;11.714;2022-07-23T08:06:54;30.60;40.00
71672;DHT22;62112;45.638;11.714;2022-07-23T08:09:20;30.60;39.50
71672;DHT22;62112;45.638;11.714;2022-07-23T08:11:46;30.60;39.20
71672;DHT22;62112;45.638;11.714;2022-07-23T08:14:21;30.50;38.90
71672;DHT22;62112;45.638;11.714;2022-07-23T08:16:47;30.40;38.80
71672;DHT22;62112;45.638;11.714;2022-07-23T08:19:16;30.40;38.60
71672;DHT22;62112;45.638;11.714;2022-07-23T08:21:43;30.60;38.20
71672;DHT22;62112;45.638;11.714;2022-07-23T08:24:09;30.40;38.30
71672;DHT22;62112;45.638;11.714;2022-07-23T08:26:36;30.40;38.20
71672;DHT22;62112;45.638;11.714;2022-07-23T08:29:04;30.40;37.90
71672;DHT22;62112;45.638;11.714;2022-07-23T08:31:30;30.40;38.00
71672;DHT22;62112;45.638;11.714;2022-07-23T08:33:59;30.40;38.00
71672;DHT22;62112;45.638;11.714;2022-07-23T08:36:25;30.50;37.70
71672;DHT22;62112;45.638;11.714;2022-07-23T08:38:53;30.40;37.80
71672;DHT22;62112;45.638;11.714;2022-07-23T08:41:20;30.40;37.50
71672;DHT22;62112;45.638;11.714;2022-07-23T08:43:46;30.40;37.40
71672;DHT22;62112;45.638;11.714;2022-07-23T08:46:13;30.50;37.50
71672;DHT22;62112;45.638;11.714;2022-07-23T08:48:39;30.40;37.30
71672;DHT22;62112;45.638;11.714;2022-07-23T08:51:06;30.40;37.20
71672;DHT22;62112;45.638;11.714;2022-07-23T08:53:33;30.40;37.00
71672;DHT22;62112;45.638;11.714;2022-07-23T08:56:03;30.50;37.20
71672;DHT22;62112;45.638;11.714;2022-07-23T08:58:31;30.40;37.30
71672;DHT22;62112;45.638;11.714;2022-07-23T09:01:03;30.50;37.70
71672;DHT22;62112;45.638;11.714;2022-07-23T09:03:37;30.50;37.80
71672;DHT22;62112;45.638;11.714;2022-07-23T09:06:11;30.50;37.50
71672;DHT22;62112;45.638;11.714;2022-07-23T09:08:42;30.40;37.40
71672;DHT22;62112;45.638;11.714;2022-07-23T09:11:13;30.50;37.90
71672;DHT22;62112;45.638;11.714;2022-07-23T09:13:56;30.40;37.80
71672;DHT22;62112;45.638;11.714;2022-07-23T09:16:29;30.50;37.40
71672;DHT22;62112;45.638;11.714;2022-07-23T09:19:03;30.50;37.60
71672;DHT22;62112;45.638;11.714;2022-07-23T09:21:38;30.40;37.60
71672;DHT22;62112;45.638;11.714;2022-07-23T09:24:09;30.40;37.40
71672;DHT22;62112;45.638;11.714;2022-07-23T09:26:46;30.50;37.50
71672;DHT22;62112;45.638;11.714;2022-07-23T09:29:20;30.40;37.20
71672;DHT22;62112;45.638;11.714;2022-07-23T09:31:58;30.50;37.40
71672;DHT22;62112;45.638;11.714;2022-07-23T09:34:29;30.40;37.10
71672;DHT22;62112;45.638;11.714;2022-07-23T09:37:13;30.40;37.10
71672;DHT22;62112;45.638;11.714;2022-07-23T09:39:41;30.40;37.20
71672;DHT22;62112;45.638;11.714;2022-07-23T09:42:18;30.40;37.20
71672;DHT22;62112;45.638;11.714;2022-07-23T09:44:48;30.40;37.00
71672;DHT22;62112;45.638;11.714;2022-07-23T09:47:15;30.40;37.30
71672;DHT22;62112;45.638;11.714;2022-07-23T09:49:58;30.40;37.00
71672;DHT22;62112;45.638;11.714;2022-07-23T09:52:31;30.40;37.10
71672;DHT22;62112;45.638;11.714;2022-07-23T09:54:58;30.40;36.90
71672;DHT22;62112;45.638;11.714;2022-07-23T09:57:26;30.40;37.10
71672;DHT22;62112;45.638;11.714;2022-07-23T09:59:52;30.50;36.70
71672;DHT22;62112;45.638;11.714;2022-07-23T10:02:18;30.40;36.80
71672;DHT22;62112;45.638;11.714;2022-07-23T10:04:46;30.40;36.80
71672;DHT22;62112;45.638;11.714;2022-07-23T10:07:14;30.40;36.50
71672;DHT22;62112;45.638;11.714;2022-07-23T10:09:43;30.40;37.10
71672;DHT22;62112;45.638;11.714;2022-07-23T10:12:13;30.50;36.70
71672;DHT22;62112;45.638;11.714;2022-07-23T10:14:57;30.50;36.20
71672;DHT22;62112;45.638;11.714;2022-07-23T10:17:23;30.50;36.30
71672;DHT22;62112;45.638;11.714;2022-07-23T10:19:49;30.40;36.20
71672;DHT22;62112;45.638;11.714;2022-07-23T10:22:20;30.40;36.10
71672;DHT22;62112;45.638;11.714;2022-07-23T10:27:43;30.40;36.00
71672;DHT22;62112;45.638;11.714;2022-07-23T10:30:29;30.50;36.10
71672;DHT22;62112;45.638;11.714;2022-07-23T10:35:41;30.40;36.00
71672;DHT22;62112;45.638;11.714;2022-07-23T10:38:22;30.40;35.70
71672;DHT22;62112;45.638;11.714;2022-07-23T10:41:03;30.40;35.90
71672;DHT22;62112;45.638;11.714;2022-07-23T10:43:30;30.40;35.90
71672;DHT22;62112;45.638;11.714;2022-07-23T10:46:25;30.40;36.20
71672;DHT22;62112;45.638;11.714;2022-07-23T10:52:24;30.40;36.30
71672;DHT22;62112;45.638;11.714;2022-07-23T10:57:49;30.40;36.20
71672;DHT22;62112;45.638;11.714;2022-07-23T11:02:47;30.30;36.20
71672;DHT22;62112;45.638;11.714;2022-07-23T11:05:19;30.30;36.30
71672;DHT22;62112;45.638;11.714;2022-07-23T11:10:40;30.40;36.00
71672;DHT22;62112;45.638;11.714;2022-07-23T11:24:10;30.30;35.40
71672;DHT22;62112;45.638;11.714;2022-07-23T11:26:52;30.20;35.20
71672;DHT22;62112;45.638;11.714;2022-07-23T11:32:03;30.30;34.70
71672;DHT22;62112;45.638;11.714;2022-07-23T11:37:08;30.20;34.70
71672;DHT22;62112;45.638;11.714;2022-07-23T11:39:35;30.30;34.70
71672;DHT22;62112;45.638;11.714;2022-07-23T11:42:03;30.20;35.00
71672;DHT22;62112;45.638;11.714;2022-07-23T11:44:35;30.20;34.60
71672;DHT22;62112;45.638;11.714;2022-07-23T11:47:08;30.30;34.50
71672;DHT22;62112;45.638;11.714;2022-07-23T11:49:35;30.20;34.40
71672;DHT22;62112;45.638;11.714;2022-07-23T11:52:14;30.10;33.80
71672;DHT22;62112;45.638;11.714;2022-07-23T11:57:14;30.10;34.10
71672;DHT22;62112;45.638;11.714;2022-07-23T11:59:40;30.10;33.90
71672;DHT22;62112;45.638;11.714;2022-07-23T12:02:07;30.20;33.80
71672;DHT22;62112;45.638;11.714;2022-07-23T12:04:45;30.10;34.00
71672;DHT22;62112;45.638;11.714;2022-07-23T12:09:52;30.20;33.30
71672;DHT22;62112;45.638;11.714;2022-07-23T12:12:18;30.10;33.40
71672;DHT22;62112;45.638;11.714;2022-07-23T12:14:56;30.10;33.40
71672;DHT22;62112;45.638;11.714;2022-07-23T12:17:28;30.00;33.40
71672;DHT22;62112;45.638;11.714;2022-07-23T12:19:57;30.00;33.60
71672;DHT22;62112;45.638;11.714;2022-07-23T12:22:25;30.00;33.40
71672;DHT22;62112;45.638;11.714;2022-07-23T12:25:09;30.00;33.10
71672;DHT22;62112;45.638;11.714;2022-07-23T12:27:35;30.10;32.70
71672;DHT22;62112;45.638;11.714;2022-07-23T12:30:22;30.00;32.60
71672;DHT22;62112;45.638;11.714;2022-07-23T12:32:51;30.20;33.20
71672;DHT22;62112;45.638;11.714;2022-07-23T12:35:18;30.10;33.80
71672;DHT22;62112;45.638;11.714;2022-07-23T12:37:45;30.00;33.50
71672;DHT22;62112;45.638;11.714;2022-07-23T12:42:48;30.10;33.20
71672;DHT22;62112;45.638;11.714;2022-07-23T12:45:14;30.10;33.20
71672;DHT22;62112;45.638;11.714;2022-07-23T12:48:02;30.10;33.10
71672;DHT22;62112;45.638;11.714;2022-07-23T12:50:40;30.00;33.10
71672;DHT22;62112;45.638;11.714;2022-07-23T12:53:13;30.10;33.90
71672;DHT22;62112;45.638;11.714;2022-07-23T12:55:40;30.00;34.10
71672;DHT22;62112;45.638;11.714;2022-07-23T12:58:13;30.00;33.50
71672;DHT22;62112;45.638;11.714;2022-07-23T13:03:31;30.10;33.00
71672;DHT22;62112;45.638;11.714;2022-07-23T13:05:58;30.00;32.80
71672;DHT22;62112;45.638;11.714;2022-07-23T13:08:26;30.00;32.70
71672;DHT22;62112;45.638;11.714;2022-07-23T13:10:53;30.00;32.80
71672;DHT22;62112;45.638;11.714;2022-07-23T13:13:24;30.00;32.60
71672;DHT22;62112;45.638;11.714;2022-07-23T13:15:51;30.00;33.00
71672;DHT22;62112;45.638;11.714;2022-07-23T13:18:18;30.00;32.70
71672;DHT22;62112;45.638;11.714;2022-07-23T13:20:45;30.00;33.20
71672;DHT22;62112;45.638;11.714;2022-07-23T13:23:12;29.90;33.20
71672;DHT22;62112;45.638;11.714;2022-07-23T13:25:38;30.10;32.70
71672;DHT22;62112;45.638;11.714;2022-07-23T13:28:04;30.00;32.90
71672;DHT22;62112;45.638;11.714;2022-07-23T13:30:30;30.10;32.30
71672;DHT22;62112;45.638;11.714;2022-07-23T13:32:56;30.10;32.00
71672;DHT22;62112;45.638;11.714;2022-07-23T13:35:22;30.10;31.50
71672;DHT22;62112;45.638;11.714;2022-07-23T13:37:48;30.30;31.70
71672;DHT22;62112;45.638;11.714;2022-07-23T13:40:14;30.30;31.30
71672;DHT22;62112;45.638;11.714;2022-07-23T13:42:42;30.40;31.60
71672;DHT22;62112;45.638;11.714;2022-07-23T13:45:08;30.40;31.00
71672;DHT22;62112;45.638;11.714;2022-07-23T13:47:34;30.40;31.30
71672;DHT22;62112;45.638;11.714;2022-07-23T13:50:00;30.50;31.30
71672;DHT22;62112;45.638;11.714;2022-07-23T13:52:26;30.60;30.80
71672;DHT22;62112;45.638;11.714;2022-07-23T13:54:52;30.70;30.70
71672;DHT22;62112;45.638;11.714;2022-07-23T13:57:18;30.60;30.60
71672;DHT22;62112;45.638;11.714;2022-07-23T13:59:44;30.70;30.60
71672;DHT22;62112;45.638;11.714;2022-07-23T14:02:10;30.80;30.70
71672;DHT22;62112;45.638;11.714;2022-07-23T14:04:39;30.80;30.50
71672;DHT22;62112;45.638;11.714;2022-07-23T14:07:04;30.90;30.60
71672;DHT22;62112;45.638;11.714;2022-07-23T14:09:30;31.00;30.20
71672;DHT22;62112;45.638;11.714;2022-07-23T14:11:59;30.90;30.10
71672;DHT22;62112;45.638;11.714;2022-07-23T14:14:25;30.90;30.00
71672;DHT22;62112;45.638;11.714;2022-07-23T14:16:51;31.00;30.00
71672;DHT22;62112;45.638;11.714;2022-07-23T14:19:17;31.00;29.90
71672;DHT22;62112;45.638;11.714;2022-07-23T14:21:44;31.10;30.00
71672;DHT22;62112;45.638;11.714;2022-07-23T14:24:09;31.10;29.70
71672;DHT22;62112;45.638;11.714;2022-07-23T14:26:39;31.10;29.50
71672;DHT22;62112;45.638;11.714;2022-07-23T14:29:08;31.10;29.60
71672;DHT22;62112;45.638;11.714;2022-07-23T14:31:35;31.10;29.50
71672;DHT22;62112;45.638;11.714;2022-07-23T14:34:10;31.10;29.40
71672;DHT22;62112;45.638;11.714;2022-07-23T14:36:40;31.10;29.50
71672;DHT22;62112;45.638;11.714;2022-07-23T14:39:06;31.10;29.10
71672;DHT22;62112;45.638;11.714;2022-07-23T14:41:39;31.10;29.20
71672;DHT22;62112;45.638;11.714;2022-07-23T14:44:06;31.10;29.00
71672;DHT22;62112;45.638;11.714;2022-07-23T14:46:32;31.10;29.00
71672;DHT22;62112;45.638;11.714;2022-07-23T14:48:58;31.20;29.10
71672;DHT22;62112;45.638;11.714;2022-07-23T14:51:24;31.20;28.70
71672;DHT22;62112;45.638;11.714;2022-07-23T14:53:50;31.20;28.90
71672;DHT22;62112;45.638;11.714;2022-07-23T14:56:16;31.30;29.20
71672;DHT22;62112;45.638;11.714;2022-07-23T14:58:42;31.20;28.90
71672;DHT22;62112;45.638;11.714;2022-07-23T15:01:08;31.30;28.60
71672;DHT22;62112;45.638;11.714;2022-07-23T15:03:34;31.20;28.80
71672;DHT22;62112;45.638;11.714;2022-07-23T15:06:00;31.30;28.80
71672;DHT22;62112;45.638;11.714;2022-07-23T15:08:26;31.20;28.70
71672;DHT22;62112;45.638;11.714;2022-07-23T15:10:52;31.20;28.80
71672;DHT22;62112;45.638;11.714;2022-07-23T15:13:18;31.30;29.40
71672;DHT22;62112;45.638;11.714;2022-07-23T15:15:44;31.30;29.30
71672;DHT22;62112;45.638;11.714;2022-07-23T15:18:11;31.30;29.90
71672;DHT22;62112;45.638;11.714;2022-07-23T15:20:37;31.30;29.90
71672;DHT22;62112;45.638;11.714;2022-07-23T15:23:07;31.40;29.90
71672;DHT22;62112;45.638;11.714;2022-07-23T15:25:33;31.40;29.80
71672;DHT22;62112;45.638;11.714;2022-07-23T15:27:59;31.40;29.90
71672;DHT22;62112;45.638;11.714;2022-07-23T15:30:26;31.50;29.90
71672;DHT22;62112;45.638;11.714;2022-07-23T15:32:52;31.50;29.90
71672;DHT22;62112;45.638;11.714;2022-07-23T15:35:19;31.40;29.70
71672;DHT22;62112;45.638;11.714;2022-07-23T15:37:45;31.40;29.70
71672;DHT22;62112;45.638;11.714;2022-07-23T15:40:12;31.40;29.60
71672;DHT22;62112;45.638;11.714;2022-07-23T15:42:38;31.30;29.20
71672;DHT22;62112;45.638;11.714;2022-07-23T15:45:05;31.20;29.30
71672;DHT22;62112;45.638;11.714;2022-07-23T15:47:31;31.30;29.30
71672;DHT22;62112;45.638;11.714;2022-07-23T15:49:57;31.30;29.10
71672;DHT22;62112;45.638;11.714;2022-07-23T15:52:23;31.10;29.10
71672;DHT22;62112;45.638;11.714;2022-07-23T15:54:50;31.10;29.40
71672;DHT22;62112;45.638;11.714;2022-07-23T15:57:16;31.10;29.30
71672;DHT22;62112;45.638;11.714;2022-07-23T15:59:42;31.00;29.30
71672;DHT22;62112;45.638;11.714;2022-07-23T16:02:08;30.90;29.40